Time;durP1;ratioP1;P1;durP2;ratioP2;P2;SDS_P1;SDS_P2;PMS_P1;PMS_P2;Temp;Humidity;BMP_temperature;BMP_pressure;BME280_temperature;BME280_humidity;BME280_pressure;Samples;Min_cycle;Max_cycle;Signal;HPM_P1;HPM_P2
2022/08/25 00:01:16;;;;;;;2.53;1.80;;;25.10;65.80;;;;;;5074041;28;20480;-71
2022/08/25 00:03:43;;;;;;;2.08;1.88;;;25.10;65.70;;;;;;5074258;28;20052;-71
2022/08/25 00:06:09;;;;;;;3.80;2.20;;;25.10;65.80;;;;;;5074151;28;20095;-71
2022/08/25 00:08:36;;;;;;;2.25;2.05;;;25.10;65.70;;;;;;5073814;28;20506;-71
2022/08/25 00:11:05;;;;;;;1.67;1.55;;;25.10;65.70;;;;;;5092078;28;20122;-71
2022/08/25 00:13:30;;;;;;;3.53;2.15;;;25.10;65.70;;;;;;5073939;28;20483;-71
2022/08/25 00:15:57;;;;;;;2.10;1.77;;;25.10;65.70;;;;;;5092222;28;20093;-71
2022/08/25 00:18:22;;;;;;;2.85;1.90;;;25.10;65.60;;;;;;5073510;28;20052;-75
2022/08/25 00:20:48;;;;;;;2.10;1.50;;;25.10;65.60;;;;;;5091922;28;20105;-71
2022/08/25 00:23:14;;;;;;;2.78;1.65;;;25.10;65.60;;;;;;5073814;28;20449;-70
2022/08/25 00:25:39;;;;;;;2.38;1.90;;;25.10;65.50;;;;;;5074070;28;20036;-74
2022/08/25 00:28:05;;;;;;;3.67;2.05;;;25.10;65.50;;;;;;5092006;28;20036;-71
2022/08/25 00:30:30;;;;;;;2.13;1.92;;;25.10;65.50;;;;;;5091866;28;20118;-71
2022/08/25 00:32:56;;;;;;;2.00;1.55;;;25.00;65.40;;;;;;5074019;28;20088;-71
2022/08/25 00:35:23;;;;;;;2.13;1.98;;;25.00;65.40;;;;;;5073983;28;20506;-71
2022/08/25 00:37:49;;;;;;;2.28;1.85;;;25.00;65.40;;;;;;5073593;28;20623;-71
2022/08/25 00:40:15;;;;;;;2.10;1.85;;;25.00;65.30;;;;;;5077272;28;20140;-70
2022/08/25 00:42:40;;;;;;;2.70;1.40;;;25.00;65.30;;;;;;5077805;28;20047;-71
2022/08/25 00:45:07;;;;;;;2.40;1.70;;;25.00;65.30;;;;;;5077590;28;20480;-71
2022/08/25 00:47:33;;;;;;;2.50;1.85;;;25.00;65.20;;;;;;5077729;28;20044;-71
2022/08/25 00:50:01;;;;;;;3.63;1.98;;;25.00;65.20;;;;;;5077490;28;20177;-71
2022/08/25 00:52:31;;;;;;;2.90;1.52;;;25.00;65.00;;;;;;5077803;28;20047;-71
2022/08/25 00:55:05;;;;;;;2.05;1.90;;;25.00;65.00;;;;;;5077551;28;20392;-71
2022/08/25 00:57:35;;;;;;;2.38;2.17;;;25.00;65.00;;;;;;5077271;28;20036;-71
2022/08/25 01:00:09;;;;;;;2.28;1.70;;;25.00;65.00;;;;;;5077327;28;20044;-71
2022/08/25 01:02:35;;;;;;;2.55;1.38;;;25.00;65.00;;;;;;5077530;28;20040;-71
2022/08/25 01:05:02;;;;;;;1.77;1.15;;;24.90;64.90;;;;;;5077623;28;20038;-71
2022/08/25 01:07:27;;;;;;;3.95;2.00;;;24.90;64.90;;;;;;5077346;28;20079;-71
2022/08/25 01:09:54;;;;;;;1.77;1.50;;;24.90;64.80;;;;;;5095312;28;20120;-74
2022/08/25 01:12:20;;;;;;;1.75;1.65;;;24.90;64.70;;;;;;5077164;28;20032;-71
2022/08/25 01:14:48;;;;;;;1.90;1.73;;;24.90;64.70;;;;;;5077355;28;20075;-71
2022/08/25 01:17:15;;;;;;;1.95;1.70;;;24.90;64.60;;;;;;5076689;28;20048;-71
2022/08/25 01:19:40;;;;;;;1.83;1.73;;;24.90;64.50;;;;;;5077240;28;20044;-71
2022/08/25 01:22:07;;;;;;;1.52;1.42;;;24.90;64.60;;;;;;5077127;28;20579;-71
2022/08/25 01:24:41;;;;;;;2.42;1.45;;;24.90;64.40;;;;;;5077031;28;20040;-71
2022/08/25 01:27:08;;;;;;;2.00;1.65;;;24.90;64.30;;;;;;5076927;28;20048;-71
2022/08/25 01:29:34;;;;;;;1.60;1.50;;;24.90;64.30;;;;;;5076881;28;20044;-71
2022/08/25 01:32:05;;;;;;;2.17;1.40;;;24.90;64.30;;;;;;5095060;28;20036;-71
2022/08/25 01:34:33;;;;;;;1.92;1.70;;;24.90;64.20;;;;;;5076650;28;20057;-71
2022/08/25 01:36:59;;;;;;;1.77;1.35;;;24.90;64.10;;;;;;5076813;28;20044;-71
2022/08/25 01:39:28;;;;;;;2.65;1.40;;;24.90;64.10;;;;;;5076843;28;20071;-71
2022/08/25 01:44:35;;;;;;;1.70;1.42;;;24.90;64.00;;;;;;5130272;27;20399;-71
2022/08/25 01:47:03;;;;;;;2.20;2.00;;;24.90;63.90;;;;;;5129157;28;20088;-72
2022/08/25 01:49:32;;;;;;;2.10;1.73;;;24.80;63.80;;;;;;5129140;28;20059;-71
2022/08/25 01:52:09;;;;;;;2.35;2.08;;;24.90;63.70;;;;;;5129157;28;20133;-71
2022/08/25 01:54:34;;;;;;;3.85;1.77;;;24.80;63.70;;;;;;5128891;28;20082;-71
2022/08/25 01:57:00;;;;;;;2.38;1.55;;;24.80;63.60;;;;;;5128654;28;20074;-71
2022/08/25 01:59:26;;;;;;;2.10;1.33;;;24.80;63.60;;;;;;5128785;28;20096;-72
2022/08/25 02:01:52;;;;;;;1.75;1.27;;;24.80;63.50;;;;;;5129832;28;20035;-71
2022/08/25 02:04:18;;;;;;;2.30;1.70;;;24.80;63.40;;;;;;5129771;28;20040;-71
2022/08/25 02:06:43;;;;;;;1.98;1.80;;;24.80;63.30;;;;;;5119618;28;20074;-71
2022/08/25 02:09:13;;;;;;;2.75;1.70;;;24.80;63.30;;;;;;5109362;28;20040;-71
2022/08/25 02:11:40;;;;;;;;;;;24.80;63.20;;;;;;5108587;28;20040;-71
2022/08/25 02:14:11;;;;;;;2.28;1.60;;;24.80;63.00;;;;;;5109350;28;19915;-71
2022/08/25 02:16:38;;;;;;;;;;;24.70;63.20;;;;;;5108614;28;20139;-72
2022/08/25 02:19:07;;;;;;;2.03;1.33;;;24.70;62.90;;;;;;5107805;28;19959;-71
2022/08/25 02:21:34;;;;;;;3.47;1.83;;;24.80;63.10;;;;;;5109030;28;20044;-71
2022/08/25 02:24:00;;;;;;;2.20;1.65;;;24.70;62.90;;;;;;5107751;28;20040;-71
2022/08/25 02:26:26;;;;;;;2.45;1.42;;;24.70;62.90;;;;;;5108169;28;20352;-71
2022/08/25 02:28:52;;;;;;;1.77;1.67;;;24.70;62.90;;;;;;5108020;28;20047;-71
2022/08/25 02:31:21;;;;;;;2.30;1.65;;;24.70;62.80;;;;;;5107560;28;20047;-71
2022/08/25 02:33:47;;;;;;;1.95;1.20;;;24.70;62.80;;;;;;5107593;28;20050;-71
2022/08/25 02:36:14;;;;;;;1.52;1.40;;;24.70;62.70;;;;;;5109073;28;20067;-71
2022/08/25 02:38:40;;;;;;;1.38;1.27;;;24.70;62.60;;;;;;5108943;28;20040;-71
2022/08/25 02:41:12;;;;;;;1.83;1.60;;;24.70;62.60;;;;;;5107708;28;20504;-71
2022/08/25 02:43:39;;;;;;;2.80;1.45;;;24.70;62.50;;;;;;5107040;28;20135;-70
2022/08/25 02:46:04;;;;;;;1.60;1.40;;;24.70;62.50;;;;;;5107488;28;20047;-75
2022/08/25 02:48:30;;;;;;;2.03;1.33;;;24.70;62.40;;;;;;5107530;28;20040;-71
2022/08/25 02:50:59;;;;;;;1.55;1.45;;;24.70;62.40;;;;;;5107321;28;20047;-71
2022/08/25 02:53:26;;;;;;;1.95;1.60;;;24.70;62.30;;;;;;5108917;28;20407;-71
2022/08/25 02:55:52;;;;;;;2.35;1.58;;;24.60;62.30;;;;;;5093763;28;20044;-71
2022/08/25 02:58:19;;;;;;;1.58;1.42;;;24.70;62.30;;;;;;5093700;28;20046;-71
2022/08/25 03:00:45;;;;;;;1.88;1.42;;;24.60;62.20;;;;;;5093632;28;20089;-70
2022/08/25 03:03:11;;;;;;;2.08;1.27;;;24.60;62.20;;;;;;5094597;28;20412;-71
2022/08/25 03:05:38;;;;;;;1.33;1.20;;;24.70;62.90;;;;;;5093460;28;20036;-71
2022/08/25 03:08:05;;;;;;;1.50;1.20;;;24.60;62.00;;;;;;5113507;28;20094;-70
2022/08/25 03:10:31;;;;;;;1.83;1.50;;;24.60;61.90;;;;;;5114006;28;20437;-71
2022/08/25 03:12:57;;;;;;;1.88;1.50;;;24.60;61.90;;;;;;5113660;28;20077;-71
2022/08/25 03:15:24;;;;;;;1.42;1.10;;;24.60;61.80;;;;;;5113633;28;20043;-71
2022/08/25 03:17:50;;;;;;;1.38;1.27;;;24.60;61.80;;;;;;5114779;28;20074;-71
2022/08/25 03:20:17;;;;;;;1.48;1.38;;;24.60;61.70;;;;;;5114795;28;20514;-71
2022/08/25 03:22:43;;;;;;;1.65;1.10;;;24.60;61.70;;;;;;5113685;28;20043;-71
2022/08/25 03:27:55;;;;;;;1.88;1.75;;;24.60;61.60;;;;;;5113237;28;20050;-71
2022/08/25 03:30:20;;;;;;;1.52;1.33;;;24.50;61.60;;;;;;5113250;28;20031;-71
2022/08/25 03:32:46;;;;;;;3.90;2.25;;;24.60;61.50;;;;;;5113553;28;20074;-71
2022/08/25 03:35:13;;;;;;;3.15;1.50;;;24.50;61.40;;;;;;5113418;28;20088;-71
2022/08/25 03:37:38;;;;;;;2.83;1.50;;;24.50;61.40;;;;;;5114536;28;20039;-71
2022/08/25 03:40:09;;;;;;;2.15;1.30;;;24.50;61.30;;;;;;5113336;28;20360;-71
2022/08/25 03:42:35;;;;;;;1.98;1.25;;;24.50;61.30;;;;;;5113003;28;20414;-71
2022/08/25 03:45:04;;;;;;;1.95;1.50;;;24.50;61.30;;;;;;5113200;28;20048;-71
2022/08/25 03:47:30;;;;;;;1.17;0.82;;;24.50;61.20;;;;;;5113283;28;20391;-71
2022/08/25 03:49:56;;;;;;;2.95;1.45;;;24.50;61.20;;;;;;5113248;28;20059;-71
2022/08/25 03:52:22;;;;;;;3.10;1.17;;;24.50;61.10;;;;;;5114215;28;20086;-71
2022/08/25 03:54:48;;;;;;;1.38;1.08;;;24.50;61.10;;;;;;5112804;28;20071;-71
2022/08/25 03:57:14;;;;;;;1.50;1.08;;;24.50;61.10;;;;;;5114115;28;20067;-71
2022/08/25 03:59:39;;;;;;;1.40;1.20;;;24.50;61.10;;;;;;5112693;28;20404;-71
2022/08/25 04:02:06;;;;;;;1.60;1.23;;;24.50;61.00;;;;;;5112743;28;20113;-71
2022/08/25 04:04:32;;;;;;;1.63;1.33;;;24.50;61.00;;;;;;5112676;28;20082;-71
2022/08/25 04:06:58;;;;;;;2.38;1.15;;;24.50;60.90;;;;;;5111797;28;20031;-71
2022/08/25 04:09:24;;;;;;;1.42;1.33;;;24.50;60.90;;;;;;5113855;28;20449;-71
2022/08/25 04:11:51;;;;;;;1.85;1.50;;;24.40;60.80;;;;;;5112566;28;20035;-71
2022/08/25 04:14:16;;;;;;;1.98;1.40;;;24.50;60.80;;;;;;5112842;28;20403;-71
2022/08/25 04:16:43;;;;;;;1.40;1.30;;;24.40;60.80;;;;;;5112468;28;20046;-70
2022/08/25 04:19:09;;;;;;;1.65;1.05;;;24.40;60.80;;;;;;5112333;28;20092;-71
2022/08/25 04:21:37;;;;;;;1.33;1.23;;;24.40;60.70;;;;;;5112585;28;20402;-71
2022/08/25 04:24:05;;;;;;;1.27;1.00;;;24.40;60.70;;;;;;5113595;28;20485;-71
2022/08/25 04:26:36;;;;;;;1.45;1.33;;;24.40;60.70;;;;;;5113609;28;20399;-71
2022/08/25 04:29:04;;;;;;;2.17;1.50;;;24.40;60.60;;;;;;5112113;28;20042;-71
2022/08/25 04:31:30;;;;;;;1.63;1.27;;;24.40;60.60;;;;;;5113433;28;20043;-71
2022/08/25 04:33:57;;;;;;;1.60;1.15;;;24.40;60.60;;;;;;5112099;28;20483;-71
2022/08/25 04:36:23;;;;;;;1.50;1.02;;;24.40;60.60;;;;;;5112269;28;20138;-71
2022/08/25 04:38:49;;;;;;;1.98;1.20;;;24.40;60.50;;;;;;5112286;28;20122;-71
2022/08/25 04:41:18;;;;;;;1.50;1.10;;;24.40;60.50;;;;;;5112100;28;20062;-71
2022/08/25 04:43:44;;;;;;;2.08;1.17;;;24.40;60.50;;;;;;5111693;28;20504;-71
2022/08/25 04:46:16;;;;;;;1.10;1.00;;;24.40;60.40;;;;;;5112013;28;20044;-71
2022/08/25 04:48:42;;;;;;;2.25;1.20;;;24.30;60.40;;;;;;5111864;28;20118;-71
2022/08/25 04:51:12;;;;;;;1.40;1.00;;;24.30;60.30;;;;;;5111976;28;20039;-71
2022/08/25 04:53:38;;;;;;;2.22;1.13;;;24.30;60.30;;;;;;5111908;28;20043;-71
2022/08/25 04:56:07;;;;;;;1.27;1.10;;;24.30;60.30;;;;;;5111607;28;20050;-71
2022/08/25 04:58:32;;;;;;;2.20;1.50;;;24.30;60.20;;;;;;5111627;28;20092;-71
2022/08/25 05:01:03;;;;;;;1.05;0.95;;;24.30;60.20;;;;;;5112866;28;20032;-71
2022/08/25 05:03:30;;;;;;;3.10;0.80;;;24.30;60.20;;;;;;5111413;28;20494;-71
2022/08/25 05:05:56;;;;;;;1.60;0.93;;;24.30;60.20;;;;;;5111586;28;20088;-71
2022/08/25 05:08:22;;;;;;;1.27;1.05;;;24.30;60.10;;;;;;5111332;28;20604;-71
2022/08/25 05:10:49;;;;;;;1.75;1.65;;;24.30;60.10;;;;;;5111758;28;20040;-71
2022/08/25 05:13:15;;;;;;;1.48;1.05;;;24.30;60.10;;;;;;5111197;28;20054;-71
2022/08/25 05:15:56;;;;;;;1.20;1.08;;;24.30;60.10;;;;;;5111384;28;20051;-71
2022/08/25 05:18:24;;;;;;;1.05;0.95;;;24.30;60.10;;;;;;5112269;28;20399;-71
2022/08/25 05:20:52;;;;;;;1.55;1.25;;;24.30;60.10;;;;;;5113115;28;20043;-71
2022/08/25 05:23:19;;;;;;;1.75;1.00;;;24.30;60.00;;;;;;5111126;28;20437;-71
2022/08/25 05:25:45;;;;;;;2.28;1.02;;;24.30;60.00;;;;;;5111506;28;20173;-71
2022/08/25 05:28:11;;;;;;;2.45;1.20;;;24.20;59.90;;;;;;5111130;28;20035;-71
2022/08/25 05:30:39;;;;;;;1.92;1.23;;;24.30;60.00;;;;;;5111153;28;20037;-71
2022/08/25 05:33:05;;;;;;;2.03;1.27;;;24.30;59.90;;;;;;5111134;28;20065;-71
2022/08/25 05:35:31;;;;;;;2.17;1.00;;;24.30;59.90;;;;;;5111115;28;20036;-70
2022/08/25 05:37:56;;;;;;;1.65;1.13;;;24.20;59.80;;;;;;5111324;28;20150;-71
2022/08/25 05:40:23;;;;;;;2.63;1.17;;;24.20;59.80;;;;;;5111087;28;20219;-71
2022/08/25 05:42:50;;;;;;;1.48;0.93;;;24.20;59.80;;;;;;5110821;28;20051;-71
2022/08/25 05:45:16;;;;;;;1.30;1.10;;;24.20;59.70;;;;;;5110997;28;20047;-71
2022/08/25 05:47:42;;;;;;;1.85;0.98;;;24.20;59.70;;;;;;5110927;28;20036;-71
2022/08/25 05:50:08;;;;;;;1.30;1.00;;;24.20;59.70;;;;;;5110917;28;20042;-71
2022/08/25 05:52:35;;;;;;;1.45;1.10;;;24.20;59.70;;;;;;5111250;28;20071;-71
2022/08/25 05:55:00;;;;;;;2.08;1.42;;;24.20;59.60;;;;;;5110832;28;20047;-71
2022/08/25 05:57:26;;;;;;;2.50;1.55;;;24.20;59.60;;;;;;5110959;28;20122;-71
2022/08/25 05:59:52;;;;;;;1.05;0.90;;;24.20;59.60;;;;;;5111093;28;20051;-71
2022/08/25 06:02:49;;;;;;;1.63;1.20;;;24.20;59.60;;;;;;5110697;28;20043;-71
2022/08/25 06:05:03;;;;;;;1.33;0.70;;;24.20;59.60;;;;;;5110554;28;20043;-71
2022/08/25 06:07:29;;;;;;;1.40;0.90;;;24.20;59.60;;;;;;5096971;28;20040;-71
2022/08/25 06:09:55;;;;;;;1.10;0.70;;;24.20;59.60;;;;;;5090378;28;20044;-71
2022/08/25 06:12:21;;;;;;;1.52;1.23;;;24.10;59.60;;;;;;5090492;28;20040;-71
2022/08/25 06:14:48;;;;;;;1.75;1.02;;;24.10;59.50;;;;;;5090662;28;20071;-71
2022/08/25 06:17:14;;;;;;;1.40;1.00;;;24.10;59.50;;;;;;5091683;28;20328;-71
2022/08/25 06:19:40;;;;;;;1.17;0.80;;;24.10;59.50;;;;;;5091775;28;20368;-71
2022/08/25 06:22:05;;;;;;;1.50;1.08;;;24.20;59.60;;;;;;5090353;28;20042;-71
2022/08/25 06:24:32;;;;;;;1.55;1.13;;;24.20;59.60;;;;;;5090188;28;20040;-70
2022/08/25 06:26:58;;;;;;;1.65;1.15;;;24.10;59.50;;;;;;5090319;28;20051;-71
2022/08/25 06:29:23;;;;;;;2.63;0.90;;;24.10;59.50;;;;;;5090892;28;20168;-71
2022/08/25 06:31:49;;;;;;;1.30;1.13;;;24.10;59.50;;;;;;5094152;28;20048;-71
2022/08/25 06:34:16;;;;;;;3.15;1.08;;;24.10;59.50;;;;;;5095356;28;20071;-71
2022/08/25 06:36:42;;;;;;;2.35;1.00;;;24.10;59.50;;;;;;5094110;28;20040;-71
2022/08/25 06:39:08;;;;;;;1.50;1.00;;;24.10;59.50;;;;;;5093992;28;20074;-70
2022/08/25 06:41:34;;;;;;;1.50;1.10;;;24.10;59.50;;;;;;5094082;28;20097;-70
2022/08/25 06:44:00;;;;;;;1.13;1.00;;;24.10;59.60;;;;;;5093481;28;20376;-71
2022/08/25 06:46:28;;;;;;;2.13;0.93;;;24.10;59.50;;;;;;5113955;28;20096;-70
2022/08/25 06:48:55;;;;;;;1.40;0.80;;;24.10;59.50;;;;;;5114428;28;20047;-70
2022/08/25 06:51:23;;;;;;;1.80;1.27;;;24.10;59.50;;;;;;5115273;28;20036;-70
2022/08/25 06:53:49;;;;;;;1.17;1.08;;;24.10;59.50;;;;;;5114191;28;20036;-70
2022/08/25 06:56:17;;;;;;;2.28;1.17;;;24.10;59.40;;;;;;5113669;28;20149;-70
2022/08/25 06:58:43;;;;;;;1.13;1.00;;;24.10;60.20;;;;;;5113836;28;20043;-70
2022/08/25 07:01:10;;;;;;;1.15;1.05;;;24.10;59.50;;;;;;5114106;28;20050;-70
2022/08/25 07:03:36;;;;;;;1.67;1.00;;;24.10;59.50;;;;;;5113807;28;20551;-70
2022/08/25 07:06:02;;;;;;;1.85;0.95;;;24.10;59.50;;;;;;5114043;28;20126;-69
2022/08/25 07:08:28;;;;;;;1.50;1.05;;;24.10;59.50;;;;;;5113907;28;20043;-69
2022/08/25 07:10:54;;;;;;;1.48;0.85;;;24.10;59.40;;;;;;5113815;28;20042;-69
2022/08/25 07:13:20;;;;;;;1.05;0.70;;;24.10;59.20;;;;;;5113748;28;20036;-69
2022/08/25 07:15:45;;;;;;;3.05;0.82;;;24.10;59.10;;;;;;5113529;28;20051;-69
2022/08/25 07:18:12;;;;;;;1.00;0.80;;;24.10;59.00;;;;;;5113843;28;20040;-69
2022/08/25 07:20:39;;;;;;;1.33;0.70;;;24.10;58.90;;;;;;5113342;28;20042;-69
2022/08/25 07:23:05;;;;;;;2.25;1.20;;;24.20;58.90;;;;;;5113242;28;20119;-69
2022/08/25 07:25:33;;;;;;;3.15;0.80;;;24.20;58.80;;;;;;5097322;28;20035;-69
2022/08/25 07:27:59;;;;;;;1.98;0.80;;;24.20;58.80;;;;;;5113114;28;20031;-69
2022/08/25 07:30:26;;;;;;;2.13;0.63;;;24.20;58.60;;;;;;5110643;28;20557;-69
2022/08/25 07:32:52;;;;;;;1.17;0.85;;;24.20;58.60;;;;;;5112524;28;20043;-69
2022/08/25 07:35:19;;;;;;;1.48;0.70;;;24.20;58.50;;;;;;5114514;27;20441;-69
2022/08/25 07:37:48;;;;;;;1.50;0.90;;;24.20;58.50;;;;;;5113260;28;20032;-67
2022/08/25 07:43:00;;;;;;;1.13;0.60;;;24.30;58.50;;;;;;5130202;27;20428;-68
2022/08/25 07:45:29;;;;;;;2.40;0.70;;;24.30;58.50;;;;;;5128743;27;20043;-67
2022/08/25 07:48:00;;;;;;;2.97;0.73;;;24.30;58.40;;;;;;5128832;28;20272;-68
2022/08/25 07:50:28;;;;;;;1.63;0.85;;;24.30;58.50;;;;;;5130589;27;20032;-68
2022/08/25 07:52:55;;;;;;;2.20;0.82;;;24.30;58.50;;;;;;5129390;27;20391;-68
2022/08/25 07:55:23;;;;;;;2.42;0.80;;;24.30;58.50;;;;;;5129676;27;20043;-68
2022/08/25 07:57:49;;;;;;;1.50;0.70;;;24.30;58.50;;;;;;5127918;28;20427;-68
2022/08/25 08:00:15;;;;;;;3.00;0.88;;;24.30;58.50;;;;;;5126424;28;20040;-68
2022/08/25 08:02:41;;;;;;;7.70;1.63;;;24.40;58.70;;;;;;5128510;28;20040;-68
2022/08/25 08:05:09;;;;;;;4.20;1.00;;;24.40;58.90;;;;;;5127343;28;20092;-68
2022/08/25 08:07:34;;;;;;;2.88;0.80;;;24.40;59.10;;;;;;5128692;28;20395;-66
2022/08/25 08:10:00;;;;;;;3.15;1.73;;;24.40;59.60;;;;;;5129468;28;20042;-66
2022/08/25 08:12:27;;;;;;;6.22;1.10;;;24.50;59.90;;;;;;5128416;27;20058;-66
2022/08/25 08:14:53;;;;;;;4.88;1.00;;;24.50;59.80;;;;;;5129499;27;20042;-67
2022/08/25 08:17:19;;;;;;;1.35;0.60;;;24.50;59.60;;;;;;5145524;27;20043;-67
2022/08/25 08:19:45;;;;;;;2.08;0.55;;;24.50;59.40;;;;;;5129594;27;20043;-67
2022/08/25 08:22:14;;;;;;;1.25;0.70;;;24.50;59.20;;;;;;5128217;28;20028;-70
2022/08/25 08:24:41;;;;;;;1.50;0.60;;;24.50;59.00;;;;;;5129771;27;20490;-71
2022/08/25 08:27:07;;;;;;;1.23;0.63;;;24.50;59.30;;;;;;5128577;27;20035;-68
2022/08/25 08:29:34;;;;;;;3.72;1.50;;;24.60;59.70;;;;;;5127353;28;20386;-70
2022/08/25 08:32:02;;;;;;;2.75;0.57;;;24.60;59.90;;;;;;5128113;28;20070;-70
2022/08/25 08:34:28;;;;;;;1.60;0.80;;;24.60;59.80;;;;;;5128253;27;20036;-70
2022/08/25 08:36:53;;;;;;;1.38;0.70;;;24.60;59.60;;;;;;5128214;27;20158;-70
2022/08/25 08:39:19;;;;;;;3.00;0.73;;;24.70;59.40;;;;;;5126872;28;20127;-68
2022/08/25 08:50:45;;;;;;;1.38;0.52;;;24.70;59.20;;;;;;5130274;27;20469;-69
2022/08/25 08:53:22;;;;;;;1.00;0.60;;;24.70;58.90;;;;;;5128944;28;20035;-69
2022/08/25 08:55:52;;;;;;;1.92;0.68;;;24.70;58.90;;;;;;5128179;28;20031;-70
2022/08/25 09:01:01;;;;;;;2.08;0.73;;;24.70;58.90;;;;;;5129711;27;20403;-68
2022/08/25 09:06:21;;;;;;;2.08;0.90;;;24.80;59.90;;;;;;5088542;28;21016;-70
2022/08/25 09:08:47;;;;;;;4.80;1.00;;;24.80;60.30;;;;;;5084488;28;20102;-69
2022/08/25 09:11:40;;;;;;;3.95;1.40;;;24.80;60.40;;;;;;5067856;28;20480;-67
2022/08/25 09:30:56;;;;;;;3.92;1.13;;;25.00;60.80;;;;;;5088869;28;20425;-68
2022/08/25 09:33:25;;;;;;;1.25;0.93;;;25.10;60.90;;;;;;5078385;28;20400;-68
2022/08/25 09:35:53;;;;;;;3.38;1.10;;;25.20;60.80;;;;;;5087422;28;20044;-66
2022/08/25 09:38:20;;;;;;;4.38;1.20;;;25.10;60.50;;;;;;5078469;28;20380;-69
2022/08/25 09:40:49;;;;;;;3.78;1.23;;;25.10;60.30;;;;;;5081378;28;20485;-69
2022/08/25 09:43:34;;;;;;;1.92;1.00;;;25.20;60.40;;;;;;5066701;28;20388;-69
2022/08/25 09:46:25;;;;;;;5.63;1.00;;;25.10;60.30;;;;;;5067607;28;20066;-69
2022/08/25 09:48:54;;;;;;;3.45;1.15;;;25.20;60.30;;;;;;5067855;28;20147;-69
2022/08/25 09:54:15;;;;;;;2.78;0.90;;;25.10;60.10;;;;;;5130406;27;20686;-69
2022/08/25 09:59:35;;;;;;;1.33;1.05;;;25.10;60.00;;;;;;5130329;27;20415;-69
2022/08/25 10:04:41;;;;;;;3.33;1.08;;;25.10;60.00;;;;;;5130302;27;20410;-69
2022/08/25 10:07:27;;;;;;;2.10;0.90;;;25.10;59.90;;;;;;5129060;28;20039;-69
2022/08/25 10:10:00;;;;;;;1.95;1.13;;;25.10;59.80;;;;;;5130411;27;20078;-69
2022/08/25 10:12:44;;;;;;;1.25;1.00;;;25.10;59.90;;;;;;5129065;28;20132;-69
2022/08/25 10:15:21;;;;;;;2.03;1.20;;;25.10;59.80;;;;;;5129123;28;20068;-69
2022/08/25 10:17:47;;;;;;;2.35;1.10;;;25.10;59.80;;;;;;5128673;28;20043;-69
2022/08/25 10:23:09;;;;;;;2.28;1.45;;;25.10;59.70;;;;;;5130313;27;20419;-69
2022/08/25 10:25:44;;;;;;;1.27;0.90;;;25.10;59.70;;;;;;5128666;28;20490;-69
2022/08/25 10:45:46;;;;;;;2.30;0.93;;;25.20;58.70;;;;;;5128256;27;20472;-68
2022/08/25 10:50:46;;;;;;;2.78;1.17;;;25.30;58.60;;;;;;5130071;27;20349;-68
2022/08/25 10:56:25;;;;;;;1.98;0.88;;;25.40;58.50;;;;;;5088516;28;20356;-69
2022/08/25 10:59:18;;;;;;;1.58;0.90;;;25.30;58.30;;;;;;5087723;28;20105;-66
2022/08/25 11:02:20;;;;;;;3.97;1.25;;;25.30;58.20;;;;;;5087757;28;20040;-66
2022/08/25 11:07:35;;;;;;;1.13;0.85;;;25.40;58.20;;;;;;5130075;27;20422;-66
2022/08/25 11:10:23;;;;;;;2.28;0.70;;;25.40;58.20;;;;;;5128067;28;20039;-66
2022/08/25 11:12:54;;;;;;;1.63;0.85;;;25.40;58.00;;;;;;5127646;28;20057;-66
2022/08/25 11:15:32;;;;;;;2.28;0.80;;;25.40;58.00;;;;;;5127905;27;20047;-66
2022/08/25 11:18:14;;;;;;;2.47;1.00;;;25.40;57.90;;;;;;5128257;28;20039;-66
2022/08/25 11:20:52;;;;;;;1.65;1.10;;;25.40;57.70;;;;;;5127814;28;20048;-66
2022/08/25 11:26:07;;;;;;;3.20;1.02;;;25.50;57.70;;;;;;5130764;27;20410;-67
2022/08/25 11:31:17;;;;;;;2.58;0.80;;;25.50;57.40;;;;;;5087755;27;20352;-68
2022/08/25 11:33:43;;;;;;;5.68;0.98;;;25.50;57.20;;;;;;5087050;28;20042;-72
2022/08/25 11:36:34;;;;;;;2.13;0.82;;;25.50;57.20;;;;;;5087986;28;20127;-69
2022/08/25 11:47:38;;;;;;;1.50;0.60;;;25.50;56.90;;;;;;5129673;27;20422;-69
2022/08/25 11:52:48;;;;;;;2.13;1.05;;;25.60;56.40;;;;;;5086997;28;20406;-67
2022/08/25 11:58:35;;;;;;;2.42;0.50;;;25.60;56.50;;;;;;5129389;27;20399;-71
2022/08/25 12:01:03;;;;;;;2.40;0.70;;;25.60;56.20;;;;;;5118004;28;20035;-68
2022/08/25 12:17:18;;;;;;;3.90;0.57;;;25.70;56.40;;;;;;5130217;27;20349;-72
2022/08/25 12:25:20;;;;;;;1.35;0.60;;;25.60;56.50;;;;;;5089352;28;20954;-72
2022/08/25 12:30:55;;;;;;;1.83;0.80;;;25.40;56.70;;;;;;5089247;28;20364;-72
2022/08/25 12:36:26;;;;;;;1.10;0.70;;;25.50;56.90;;;;;;5089421;27;20415;-72
2022/08/25 12:38:52;;;;;;;2.45;0.85;;;25.50;57.00;;;;;;5087562;28;20048;-72
2022/08/25 12:41:29;;;;;;;1.45;0.80;;;25.40;57.00;;;;;;5087819;28;20375;-72
2022/08/25 12:44:29;;;;;;;1.35;0.77;;;25.40;57.00;;;;;;5087175;28;20051;-72
2022/08/25 12:50:24;;;;;;;1.65;0.70;;;25.40;57.00;;;;;;5089451;28;20359;-72
2022/08/25 12:52:51;;;;;;;1.65;0.80;;;25.30;57.00;;;;;;5088185;28;20040;-73
2022/08/25 12:55:19;;;;;;;1.10;0.60;;;25.40;57.10;;;;;;5087796;28;20043;-72
2022/08/25 12:57:56;;;;;;;1.15;0.90;;;25.30;57.10;;;;;;5087847;28;20040;-72
2022/08/25 13:03:40;;;;;;;2.30;0.60;;;25.30;57.10;;;;;;5130126;27;20841;-72
2022/08/25 13:09:17;;;;;;;1.40;0.70;;;25.30;57.10;;;;;;5089209;28;20368;-72
2022/08/25 13:11:50;;;;;;;2.50;0.70;;;25.40;57.90;;;;;;5088274;28;20127;-72
2022/08/25 13:14:37;;;;;;;2.17;1.02;;;25.30;57.10;;;;;;5088140;28;20051;-72
2022/08/25 13:17:04;;;;;;;1.90;0.60;;;25.30;57.00;;;;;;5088008;28;20086;-72
2022/08/25 13:19:29;;;;;;;2.47;0.55;;;25.30;57.80;;;;;;5088102;28;20046;-72
2022/08/25 13:21:57;;;;;;;0.82;0.65;;;25.30;57.00;;;;;;5087943;28;20032;-72
2022/08/25 13:24:34;;;;;;;1.63;0.70;;;25.30;57.00;;;;;;5089553;28;20040;-73
2022/08/25 13:27:03;;;;;;;2.67;0.85;;;25.30;57.00;;;;;;5087675;28;20072;-73
2022/08/25 13:29:32;;;;;;;1.20;0.50;;;25.40;57.00;;;;;;5087580;28;20040;-73
2022/08/25 13:32:01;;;;;;;2.35;0.68;;;25.30;57.00;;;;;;5088916;28;20116;-72
2022/08/25 13:34:31;;;;;;;2.70;0.70;;;25.30;56.90;;;;;;5087814;28;20032;-72
2022/08/25 13:37:37;;;;;;;2.00;0.80;;;25.30;56.90;;;;;;5087557;28;20286;-72
2022/08/25 13:42:49;;;;;;;1.73;0.80;;;25.30;56.90;;;;;;5130637;27;20411;-73
2022/08/25 13:45:18;;;;;;;2.13;1.10;;;25.40;57.00;;;;;;5128872;28;20043;-72
2022/08/25 13:47:46;;;;;;;0.98;0.70;;;25.40;57.00;;;;;;5128879;28;20126;-72
2022/08/25 13:53:10;;;;;;;2.67;0.80;;;25.30;56.90;;;;;;5130315;27;20383;-73
2022/08/25 13:58:20;;;;;;;1.90;0.75;;;25.40;57.00;;;;;;5130180;27;20752;-73
2022/08/25 14:01:00;;;;;;;1.10;0.52;;;25.40;57.00;;;;;;5129161;28;20049;-72
2022/08/25 14:11:55;;;;;;;1.65;0.80;;;25.40;56.80;;;;;;5129422;27;20353;-69
2022/08/25 14:17:06;;;;;;;2.03;0.60;;;25.60;56.40;;;;;;5089470;27;20405;-68
2022/08/25 14:19:33;;;;;;;1.58;0.60;;;25.80;55.50;;;;;;5087353;28;20040;-67
2022/08/25 14:22:00;;;;;;;1.33;0.70;;;25.80;55.20;;;;;;5101768;28;20275;-67
2022/08/25 14:24:32;;;;;;;1.33;0.60;;;25.90;54.90;;;;;;5087961;28;20111;-68
2022/08/25 14:26:58;;;;;;;1.00;0.60;;;26.00;54.70;;;;;;5087971;28;20519;-68
2022/08/25 14:29:23;;;;;;;1.00;0.80;;;26.00;54.50;;;;;;5088234;28;20048;-67
2022/08/25 14:31:51;;;;;;;1.00;0.43;;;26.10;54.50;;;;;;5087341;28;20446;-67
2022/08/25 14:34:21;;;;;;;1.17;0.73;;;26.10;54.30;;;;;;5088921;28;20079;-67
2022/08/25 14:36:48;;;;;;;1.77;0.57;;;26.20;54.20;;;;;;5086865;28;20044;-71
2022/08/25 14:39:15;;;;;;;4.07;0.82;;;26.20;54.10;;;;;;5087606;28;20131;-69
2022/08/25 14:41:44;;;;;;;3.95;0.70;;;26.20;54.20;;;;;;5086676;28;20048;-72
2022/08/25 14:44:14;;;;;;;2.67;0.88;;;26.30;54.50;;;;;;5089069;28;20037;-72
2022/08/25 14:46:49;;;;;;;5.88;1.20;;;26.30;54.50;;;;;;5086631;28;20119;-72
2022/08/25 14:49:19;;;;;;;2.70;0.57;;;26.30;54.50;;;;;;5085925;28;20043;-71
2022/08/25 14:51:45;;;;;;;4.50;0.65;;;26.20;54.50;;;;;;5088506;28;20373;-72
2022/08/25 14:54:13;;;;;;;3.03;0.70;;;26.20;54.60;;;;;;5087617;28;20135;-72
2022/08/25 14:56:40;;;;;;;5.28;1.05;;;26.10;54.70;;;;;;5085807;28;20040;-72
2022/08/25 14:59:06;;;;;;;3.63;0.88;;;26.10;54.80;;;;;;5087181;28;20078;-71
2022/08/25 15:01:32;;;;;;;2.58;1.38;;;26.00;54.80;;;;;;5085817;28;20068;-72
2022/08/25 15:06:42;;;;;;;1.45;0.60;;;26.00;55.10;;;;;;5129481;27;20872;-72
2022/08/25 15:09:11;;;;;;;1.50;0.95;;;25.90;55.10;;;;;;5128631;28;20067;-72
2022/08/25 15:11:41;;;;;;;1.85;0.77;;;25.90;55.20;;;;;;5128295;28;20119;-72
2022/08/25 15:14:08;;;;;;;3.60;0.93;;;25.90;55.30;;;;;;5128191;27;20100;-72
2022/08/25 15:16:37;;;;;;;1.35;0.57;;;25.90;55.40;;;;;;5128776;28;20063;-72
2022/08/25 15:19:06;;;;;;;1.60;0.68;;;25.90;55.50;;;;;;5128788;28;20066;-71
2022/08/25 15:21:33;;;;;;;3.17;0.80;;;25.90;55.50;;;;;;5128620;28;20043;-71
2022/08/25 15:23:59;;;;;;;0.90;0.50;;;25.90;55.60;;;;;;5128906;27;20122;-72
2022/08/25 15:26:25;;;;;;;2.15;0.80;;;25.90;55.70;;;;;;5129696;27;20054;-72
2022/08/25 15:28:51;;;;;;;2.67;0.60;;;25.90;55.70;;;;;;5128666;28;20170;-73